Hlavní strana
METAR-TAF:

METAR-TAF

Letiště :

Mosjøen, Norsko

zeměpisná šířka: 65-48N, zeměpisná délka: 013-08E, výška: 70 m

Aktuální stav počasí

Zpráva byla vytvořena před 42 minutami, v 19:20 UTC
Severní vítr 7 kt, proměnlivý mezi západoseverozápadním a severovýchodním
Teplota 5°C
Vlhkost vzduchu 87%
Tlak 995 hPa
Viditelnost: 9000 m
Skoro jasno ve výšce 1500 ft, Cumulonimbus.
Oblačno až skoro zataženo ve výšce 2500 ft
dešťové přeháňky

METAR: ENMS 231920Z 36007KT 300V050 9000 SHRA FEW015CB BKN025 05/03 Q0995 RMK WIND 412FT VRB06KT

Čas: 22:02 (20:02 UTC)


TAF: chybějící

Stav a předpovědi počasí z více než 4 000 letišť (zprávy METAR a TAF).

Červené a žluté tečky na mapě představují dostupné meteorologické stanice.

Když kurzor umístíte na tečku, zobrazí se název stanice.

Pak kliknutím zobrazíte stav a předpověď počasí.

Chcete-li změnit mapu, kliknutím na zelené tlačítko se znaménkem +mapu přiblížíte, kliknutím na zelené tlačítko se znaménkem – mapu oddálíte a kliknutím na zelené šipky přejdete na sousední mapy.


METAR-TAF: